Weather Models
Both GFS & NAM
00z 06z 12z 18z
24hr Precip
00z 06z 12z 18z
36hr Simulated radar
00z 06z 12z 18z
SKEWT Soundings
00z 12z
Current Conditions (Updated 4:40pm on 6/27/17)
Temperature
 82°
0.66
84°  
66°  
0
10
20
30
40
50
60
70
80
90
100
Dew Point
50°
64°  
50°  
-20
-10
0
10
20
30
40
50
60
70
80
Heat Index
80°
84°  
70°  
30
40
50
60
70
80
90
100
110
120
130
Heat Index
Humidity
33%
78% 
33% 
0
10
20
30
40
50
60
70
80
90
100
Barometer
29.96
   Steady
30.04  
29.96  
28.00
28.30
28.60
28.90
29.20
29.50
29.80
30.10
30.40
30.70
31.00
Temperature
Dew Point
Humidity
Pressure
Wind
15mph
WSW
Daily Rain
.00
.05
.10
.15
.20
.25
.30
.35
.40
.45
.50
Rain Today
 0.20" 
Month Rain
0.00
0.50
1.00
1.50
2.00
2.50
3.00
3.50
4.00
4.50
5.00
Month Rain
 3.49" 
Year Rain
0.00
2.50
5.00
7.50
10.00
12.50
15.00
17.50
20.00
22.50
25.00
Year Rain
 20.10" 
Sun & Moon Data
Sunrise 5:34am
Sunset 8:34pm
Moonrise 9:34am
Moonset 11:28pm
Moon % 17%
Other Rain Data
Past Hour 0.00 Past 24 Hours 0.05
Past 3 Hours 0.00 Past 7 Days 0.32
Past 6 Hours 0.00
Cloud Height
7962


Current Front Map
Current Satellite map
7 Day Forecast
NWS Forecast for Philadelphia PA
National Weather Service Forecast for: Philadelphia PA
Issued by: National Weather Service Philadelphia, PA
Updated: 3:35 pm EDT Jun 27, 2017

Philadelphia
 
This
Afternoon
This Afternoon: A slight chance of showers and thunderstorms.  Partly sunny, with a high near 80. West wind around 10 mph.  Chance of precipitation is 20%.
Slight Chance
T-storms
Tonight

Tonight: Mostly cloudy, then gradually becoming clear, with a low around 59. Northwest wind around 6 mph.
Decreasing
Clouds
Wednesday

Wednesday: Sunny, with a high near 80. Northwest wind 6 to 9 mph.
Sunny
Wednesday
Night
Wednesday Night: Mostly clear, with a low around 64. Southwest wind 6 to 8 mph.
Mostly Clear
Thursday

Thursday: Mostly sunny, with a high near 89. Southwest wind 8 to 15 mph, with gusts as high as 25 mph.
Mostly Sunny
Thursday
Night
Thursday Night: Partly cloudy, with a low around 72.
Partly Cloudy
Friday

Friday: Mostly sunny, with a high near 91.
Mostly Sunny
Friday
Night
Friday Night: Partly cloudy, with a low around 74.
Partly Cloudy
Saturday

Saturday: A chance of showers and thunderstorms.  Mostly sunny, with a high near 92. Chance of precipitation is 40%.
Chance
T-storms
Hi 80 °F Lo 59 °F Hi 80 °F Lo 64 °F Hi 89 °F Lo 72 °F Hi 91 °F Lo 74 °F Hi 92 °F

 

This Afternoon
 
A slight chance of showers and thunderstorms. Partly sunny, with a high near 80. West wind around 10 mph. Chance of precipitation is 20%.
Tonight
 
Mostly cloudy, then gradually becoming clear, with a low around 59. Northwest wind around 6 mph.
Wednesday
 
Sunny, with a high near 80. Northwest wind 6 to 9 mph.
Wednesday Night
 
Mostly clear, with a low around 64. Southwest wind 6 to 8 mph.
Thursday
 
Mostly sunny, with a high near 89. Southwest wind 8 to 15 mph, with gusts as high as 25 mph.
Thursday Night
 
Partly cloudy, with a low around 72.
Friday
 
Mostly sunny, with a high near 91.
Friday Night
 
Partly cloudy, with a low around 74.
Saturday
 
A chance of showers and thunderstorms. Mostly sunny, with a high near 92. Chance of precipitation is 40%.
Saturday Night
 
A chance of showers and thunderstorms. Mostly cloudy, with a low around 73. Chance of precipitation is 50%.
Sunday
 
A chance of showers and thunderstorms. Partly sunny, with a high near 89. Chance of precipitation is 30%.
Sunday Night
 
Partly cloudy, with a low around 71.
Monday
 
Mostly sunny, with a high near 89.
Monday Night
 
Mostly cloudy, with a low around 70.
Independence Day
 
A chance of showers and thunderstorms. Partly sunny, with a high near 87.

 

Forecast from NOAA-NWS for Philadelphia PA.

Area Weather Current Conditions
Nearby METAR Reports

KPHL - Philadelphia, Pennsylvania
Updated: Tue, 27-Jun-2017 3:54pm EDT
Mostly Cloudy
Mostly Cloudy
 Wind from W
Wind: W 16 mph , 26 km/h, Gust: 21 mph , 33 km/h
Temperature: 81°F , 27°C
Dew Point: 48°F , 9°C
Humidity: 32%
Barometer: 29.95 inHg , 1014.2 hPa
Clouds: Mostly Cloudy
Visibility: 10 miles , 16 km
Cloud details: Partly Cloudy 6500 ft
Partly Cloudy 9000 ft
Mostly Cloudy 25000 ft
2017/06/27 19:54 KPHL 271954Z AUTO 28014G18KT 10SM SCT065 SCT090 BKN250 27/09 A2995 RMK AO2 SLP141 TCU DSNT NE T02670089
KMPO - Mt. Pocono, Pennsylvania
Updated: Tue, 27-Jun-2017 3:53pm EDT
Few Clouds
Few Clouds
 Wind from W
Wind: W 10 mph , 17 km/h
Temperature: 63°F , 17°C
Dew Point: 48°F , 9°C
Humidity: 59%
Barometer: 29.99 inHg , 1015.6 hPa
Clouds: Few Clouds
Visibility: 10 miles , 16 km
Cloud details: Few Clouds 6000 ft
Few Clouds 9500 ft
2017/06/27 19:53 KMPO 271953Z AUTO 27009KT 10SM FEW060 FEW095 17/09 A2999 RMK AO2 LTG DSNT W-N RAE1857B20E31 SLP154 P0000 T01720089
 
KACY - Atlantic City, New Jersey
Updated: Tue, 27-Jun-2017 2:54pm EDT
NOT Current
Partly Cloudy
Partly Cloudy
 Wind from W
Wind: W 9 mph , 15 km/h
Temperature: 81°F , 27°C
Dew Point: 54°F , 12°C
Humidity: 39%
Barometer: 29.97 inHg , 1014.9 hPa
Clouds: Partly Cloudy
Visibility: 10 miles , 16 km
Cloud details: Partly Cloudy 5500 ft
2017/06/27 18:54 KACY 271854Z 26008KT 10SM SCT055 27/12 A2997 RMK AO2 SLP147 T02720122
KMIV - Millville, New Jersey
Updated: Tue, 27-Jun-2017 3:54pm EDT
Partly Cloudy
Partly Cloudy
 Wind from W
Wind: W 12 mph , 19 km/h
Temperature: 81°F , 27°C
Heat Index: 81°F , 27°C
Dew Point: 55°F , 13°C
Humidity: 42%
Barometer: 29.96 inHg , 1014.6 hPa
Clouds: Partly Cloudy
Visibility: 10 miles , 16 km
Cloud details: Partly Cloudy 7000 ft
2017/06/27 19:54 KMIV 271954Z AUTO 26010KT 10SM SCT070 27/13 A2996 RMK AO2 SLP145 T02670133
 
KWWD - Wildwood, New Jersey
Updated: Tue, 27-Jun-2017 3:56pm EDT
Clear
Clear
 Wind from NW
Wind: NW 6 mph , 9 km/h
Temperature: 79°F , 26°C
Dew Point: 55°F , 13°C
Humidity: 45%
Barometer: 29.98 inHg , 1015.2 hPa
Clouds: Clear
Visibility: 10 miles , 16 km
2017/06/27 19:56 KWWD 271956Z AUTO 31005KT 10SM CLR 26/13 A2998 RMK AO2 SLP154 T02560133
KDOV - Dover Afb, Delaware
Updated: Tue, 27-Jun-2017 3:58pm EDT
Clear
Clear
 Wind from SW
Wind: SW 10 mph , 17 km/h
Temperature: 81°F , 27°C
Heat Index: 81°F , 27°C
Dew Point: 55°F , 13°C
Humidity: 42%
Barometer: 29.96 inHg , 1014.6 hPa
Clouds: Clear
Visibility: 10 miles , 16 km
2017/06/27 19:58 KDOV 271958Z AUTO 23009KT 10SM CLR 27/13 A2996 RMK AO2 SLP148 T02680132 $
Severe Weather Map
Recent Forum Post
[Philadelphia] Request for Philly Snow Data by JC February 14, 2017, 08:42:21 PM
[Philadelphia] 2016 -2017 Winter snow forecast by JC December 01, 2016, 04:56:31 AM
[Philadelphia] Winter forecast 2016-2017 by xyonist November 30, 2016, 01:14:08 PM
[Philadelphia] 102.7 last Saturday by JC August 20, 2016, 03:26:22 AM
[Philadelphia] 2015 -2016 Winter snow forecast by JC April 19, 2016, 09:42:40 AM
[Philadelphia] Latest Models on Weekend Storm (Photos) by JC January 23, 2016, 12:01:03 PM
[Philadelphia] Possible large snow storm for end of week ? by JC January 21, 2016, 09:17:47 AM
[Philadelphia] El Nino! by vicente6 September 16, 2015, 01:57:08 AM